Zaandam — PDAN — position and weather

sailwx.info

Track history (hours):
 
Tides and Currents Weather Stations Pressure Air Temp Water Temp Dewpoint Dewpoint Depression Visibility Wind Speed Wind Dir Waves Ship Positions

Zaandam

Operator: Holland America Line

Last reported at 2017-Sep-22 03:00 UTC. Time now 2017-Sep-22 06:32 UTC.
Position N 57°48' W 134°48'.

Type: Passenger vessel. MMSI: 246442000.

Wind from 170 at 23 knots

Barometer 1014.7 mb
Air temperature 10.0 ° C
Visibility: greater than 2.2 NM
Dewpoint 9.0 ° C
Water temperature 21.0 ° C

Date/timePositionNaut miles runAvg speedWind from/ knotsBaromVisibWave heightAir tempDewpointWater temp
2017-Sep-22 03:00N 57°48' W 134°48'1919.1 170 / 231014.7 2.2 10.0 9.021.0
2017-Sep-22 02:00N 58°06' W 135°00'1217.9 120 / 171015.2 5.4 10.5 9.521.0
2017-Sep-22 01:18N 58°11' W 135°22'817.8
2017-Sep-22 00:52N 58°14' W 135°34'617.1
2017-Sep-22 00:30N 58°18' W 135°45'815.7
2017-Sep-22 00:01N 58°22' W 135°57'23313736.6
2017-Sep-22 00:00N 55°18' W 131°36'239493.4 180 / 41015.8 5.4 10.0 9.017.0
2017-Sep-21 23:30N 58°28' W 136°02'917.8
2017-Sep-21 23:00N 58°37' W 136°03'917.4
2017-Sep-21 22:31N 58°44' W 136°13'918.5
2017-Sep-21 22:01N 58°49' W 136°28'9 1.6
2017-Sep-21 16:19N 58°43' W 136°14'515.6
2017-Sep-21 16:00N 58°39' W 136°08'816.6
2017-Sep-21 15:30N 58°31' W 136°04'714.2
2017-Sep-21 15:01N 58°25' W 135°58'510.3
2017-Sep-21 14:30N 58°20' W 135°56'611.1
2017-Sep-21 14:00N 58°18' W 135°46'611.3
2017-Sep-21 13:30N 58°16' W 135°36'611.2
2017-Sep-21 13:00N 58°14' W 135°26'510.9
2017-Sep-21 12:30N 58°12' W 135°16'816.1
2017-Sep-21 12:00N 58°06' W 135°06'3612.0 220 / 111016.710.8 10.010.011.0
2017-Sep-21 09:00N 58°42' W 135°06'42 7.1 110 / 51015.010.8 10.0 7.911.0
2017-Sep-21 03:00N 59°24' W 135°18'77 3.4 130 / 11013.927.0 18.0 9.5 9.0
2017-Sep-20 04:00N 58°12' W 134°24'6 1.5 340 / 61008.727.0 11.5 9.517.0
2017-Sep-20 00:00N 58°18' W 134°24'18112.0 300 / 191005.927.0 12.0 7.9 9.0
2017-Sep-19 09:00N 55°18' W 133°54'1413.8 270 / 81004.010.8 12.0 7.513.0
2017-Sep-19 08:00N 55°06' W 133°42'7814.9 300 / 41004.410.8 11.9 8.013.0
2017-Sep-19 02:47N 54°25' W 131°48'516.1
2017-Sep-19 02:30N 54°24' W 131°41'816.2
2017-Sep-19 02:00N 54°23' W 131°27'5417.4
2017-Sep-19 02:00N 54°18' W 131°24'714.8 270 / 121003.727.0 11.5 6.212.0
2017-Sep-19 01:30N 54°21' W 131°13'815.6
2017-Sep-19 01:00N 54°19' W 131°00'4241.5
2017-Sep-19 01:00N 54°18' W 130°54'713.7 260 / 111004.527.0 11.5 7.412.0
2017-Sep-19 00:30N 54°13' W 131°02'918.4
2017-Sep-19 00:00N 54°04' W 131°00'4255.4
2017-Sep-19 00:00N 54°00' W 131°00'510.2 280 / 101004.027.0 11.0 7.913.0
2017-Sep-18 23:30N 53°55' W 130°57'917.1
2017-Sep-18 23:00N 53°48' W 130°49'8471.9
2017-Sep-18 23:00N 53°42' W 130°42'4 8.3 310 / 111003.827.0 11.0 6.812.0
2017-Sep-18 22:28N 53°43' W 130°35'1218.5
2017-Sep-18 21:48N 53°36' W 130°18'618.3
2017-Sep-18 21:27N 53°33' W 130°09'8418.7
2017-Sep-18 16:56N 52°23' W 128°51'818.6
2017-Sep-18 16:30N 52°15' W 128°49'1018.8
2017-Sep-18 16:00N 52°06' W 128°45'918.9
2017-Sep-18 15:30N 51°57' W 128°40'918.9
2017-Sep-18 15:00N 51°48' W 128°36'918.6
2017-Sep-18 14:30N 51°39' W 128°32'918.6
2017-Sep-18 14:00N 51°30' W 128°29'918.2
2017-Sep-18 13:30N 51°21' W 128°26'816.9
2017-Sep-18 13:00N 51°14' W 128°19'1018.5
2017-Sep-18 12:29N 51°08' W 128°06'919.0
2017-Sep-18 12:00N 51°02' W 127°55'1019.6
2017-Sep-18 11:30N 50°57' W 127°42'1020.6
2017-Sep-18 11:01N 50°51' W 127°29'4247.5
2017-Sep-18 11:00N 50°48' W 127°24'612.3 120 / 141002.510.8 9.8 8.211.0
2017-Sep-18 10:30N 50°47' W 127°15'1019.6
2017-Sep-18 10:00N 50°43' W 127°00'918.4
2017-Sep-18 09:30N 50°38' W 126°48'914.8
2017-Sep-18 08:54N 50°31' W 126°39'818.4
2017-Sep-18 08:29N 50°30' W 126°27'3517.7
2017-Sep-18 06:30N 50°22' W 125°34'714.4
2017-Sep-18 06:00N 50°18' W 125°25'917.8
2017-Sep-18 05:30N 50°09' W 125°21'713.4
2017-Sep-18 05:00N 50°04' W 125°15'815.1
2017-Sep-18 04:30N 49°58' W 125°09'1020.6
2017-Sep-18 04:01N 49°51' W 124°57'1020.3
2017-Sep-18 03:30N 49°43' W 124°47'1020.1
2017-Sep-18 03:01N 49°36' W 124°36'1020.1
2017-Sep-18 02:30N 49°28' W 124°26'1019.6
2017-Sep-18 02:01N 49°25' W 124°12'472834.6
2017-Sep-18 02:00N 49°18' W 123°00'3777.1 240 / 181001.710.8 14.0 8.014.0
2017-Sep-18 01:31N 49°23' W 123°57'1020.2
2017-Sep-18 01:01N 49°21' W 123°41'1020.6
2017-Sep-18 00:30N 49°19' W 123°26'1019.9
2017-Sep-18 00:01N 49°19' W 123°11'3 6.4
2017-Sep-17 23:30N 49°17' W 123°07'0 0.2
2017-Sep-17 23:00N 49°17' W 123°07'0 0.0
2017-Sep-17 22:30N 49°17' W 123°07'0 0.0
2017-Sep-17 22:00N 49°17' W 123°07'0 0.0
2017-Sep-17 21:30N 49°17' W 123°07'0 0.0
2017-Sep-17 21:00N 49°17' W 123°07'0 0.0
2017-Sep-17 20:30N 49°17' W 123°07'0 0.0
2017-Sep-17 20:00N 49°17' W 123°07'0 0.0
2017-Sep-17 19:30N 49°17' W 123°07'0 0.0
2017-Sep-17 19:00N 49°17' W 123°07'0 0.0
2017-Sep-17 18:30N 49°17' W 123°07'0 0.0
2017-Sep-17 18:00N 49°17' W 123°07'0 0.0
2017-Sep-17 17:30N 49°17' W 123°07'0 0.0
2017-Sep-17 17:00N 49°17' W 123°07'0 0.0
2017-Sep-17 16:30N 49°17' W 123°07'0 0.0
2017-Sep-17 16:00N 49°17' W 123°07'0 0.0
2017-Sep-17 15:30N 49°17' W 123°07'0 0.0
2017-Sep-17 15:00N 49°17' W 123°07'0 0.0
2017-Sep-17 14:30N 49°17' W 123°07'0 0.0
2017-Sep-17 14:00N 49°17' W 123°07'2 3.4
2017-Sep-17 13:30N 49°19' W 123°08'510.5
2017-Sep-17 13:00N 49°18' W 123°16'611.5
2017-Sep-17 12:30N 49°18' W 123°25'611.4
2017-Sep-17 12:00N 49°18' W 123°34'611.8
2017-Sep-17 11:30N 49°19' W 123°43'612.0
2017-Sep-17 11:00N 49°21' W 123°51'3224.6
2017-Sep-17 11:00N 49°18' W 123°48'918.5 150 / 141006.710.8 15.5 9.815.0
2017-Sep-17 10:30N 49°22' W 124°00'611.8
2017-Sep-17 10:00N 49°23' W 124°09'611.9
2017-Sep-17 09:30N 49°25' W 124°18'611.9
2017-Sep-17 09:00N 49°28' W 124°26'4271.8
2017-Sep-17 09:00N 49°24' W 124°24'1019.9 110 / 201007.010.8 16.011.415.0
2017-Sep-17 08:30N 49°32' W 124°33'612.0
2017-Sep-17 08:01N 49°36' W 124°39'2109.2
2017-Sep-17 08:00N 49°36' W 124°36'715.3 130 / 241007.310.8 16.210.616.0
2017-Sep-17 07:30N 49°41' W 124°45'611.9
2017-Sep-17 07:00N 49°45' W 124°51'612.2
2017-Sep-17 06:30N 49°49' W 124°58'611.9
2017-Sep-17 06:00N 49°54' W 125°04'611.8
2017-Sep-17 05:30N 49°58' W 125°10'611.8
2017-Sep-17 05:00N 50°03' W 125°15'612.7
2017-Sep-17 04:30N 50°08' W 125°21'5 9.9
2017-Sep-17 04:00N 50°13' W 125°23'4 8.8
2017-Sep-17 03:30N 50°17' W 125°24'4 7.2
2017-Sep-17 03:00N 50°18' W 125°30'353.6 120 / 131009.1 19.0 1.310.0
2017-Sep-17 02:56N 50°21' W 125°30'613.6
2017-Sep-17 02:30N 50°22' W 125°40'1214.4
2017-Sep-17 01:40N 50°25' W 125°58'715.8
2017-Sep-17 01:13N 50°28' W 126°08'416.5
2017-Sep-17 00:59N 50°29' W 126°14'816.5
2017-Sep-17 00:30N 50°30' W 126°26'816.0
2017-Sep-17 00:00N 50°31' W 126°39'2552.0
2017-Sep-17 00:00N 50°30' W 126°36'815.4 320 / 81010.0 5.4 12.012.010.0
2017-Sep-16 23:29N 50°36' W 126°44'815.3
2017-Sep-16 22:59N 50°41' W 126°53'715.4
2017-Sep-16 22:30N 50°44' W 127°04'715.0
2017-Sep-16 22:00N 50°46' W 127°15'917.0
2017-Sep-16 21:30N 50°50' W 127°27'917.6
2017-Sep-16 21:00N 50°54' W 127°39'917.7
2017-Sep-16 20:30N 51°00' W 127°50'917.7
2017-Sep-16 20:00N 51°05' W 128°02'918.2
2017-Sep-16 19:30N 51°10' W 128°14'918.0
2017-Sep-16 19:00N 51°15' W 128°26'917.7
2017-Sep-16 18:30N 51°23' W 128°30'918.5
2017-Sep-16 18:00N 51°32' W 128°32'918.3
2017-Sep-16 17:30N 51°41' W 128°35'918.5
2017-Sep-16 17:00N 51°50' W 128°41'918.8
2017-Sep-16 16:30N 51°55' W 128°53'918.5
2017-Sep-16 16:00N 51°60' W 129°06'918.2
2017-Sep-16 15:30N 52°05' W 129°18'918.3
2017-Sep-16 15:00N 52°10' W 129°31'918.4
2017-Sep-16 14:30N 52°17' W 129°41'918.6
2017-Sep-16 14:00N 52°24' W 129°50'1018.5
2017-Sep-16 13:29N 52°32' W 129°58'918.3
2017-Sep-16 13:00N 52°40' W 130°05'918.4
2017-Sep-16 12:30N 52°48' W 130°13'1418.9
2017-Sep-16 11:46N 53°00' W 130°25'1619.2
2017-Sep-16 10:56N 53°14' W 130°38'819.5
2017-Sep-16 10:30N 53°21' W 130°44'1019.5
2017-Sep-16 10:01N 53°30' W 130°51'1019.5
2017-Sep-16 09:31N 53°40' W 130°53'1019.3
2017-Sep-16 09:00N 53°49' W 130°55'1019.2
2017-Sep-16 08:30N 53°59' W 130°58'918.5
2017-Sep-16 08:00N 54°08' W 130°60'918.1
2017-Sep-16 07:30N 54°17' W 130°60'612.1
2017-Sep-16 07:00N 54°23' W 131°02'918.0
2017-Sep-16 06:30N 54°30' W 131°12'918.7
2017-Sep-16 06:00N 54°36' W 131°23'1018.6
2017-Sep-16 05:28N 54°44' W 131°34'818.1
2017-Sep-16 05:00N 54°52' W 131°39'3217.6
2017-Sep-16 05:00N 54°54' W 131°36'1818.0 310 / 111015.9 11.0 9.013.0
2017-Sep-16 04:00N 55°12' W 131°36'93 5.8 220 / 41016.310.8 12.0 7.913.0
2017-Sep-15 12:00N 56°12' W 133°42'2412.1 100 / 71019.610.8 10.5 7.4 9.0
2017-Sep-15 10:00N 56°06' W 134°24'1818.0 190 / 21020.110.8 11.5 5.711.0
2017-Sep-15 09:00N 56°24' W 134°24'9118.2 300 / 11020.110.8 11.0 6.8 9.0
2017-Sep-15 04:00N 57°54' W 134°00'1919.1 140 / 71020.010.8 10.0 5.6 8.0
2017-Sep-15 03:00N 58°12' W 134°12'17 1.1 140 / 71020.010.8 10.0 7.9 9.0
2017-Sep-14 12:00N 58°18' W 134°42'9 8.7 110 / 91021.610.8 10.0 7.511.0
2017-Sep-14 11:00N 58°24' W 134°54'19 9.5 180 / 71021.410.8 10.0 7.911.0
2017-Sep-14 09:00N 58°42' W 135°06'18 9.1 120 / 91022.010.8 10.2 8.811.0
2017-Sep-14 07:00N 59°00' W 135°12'7 6.7 020 / 51021.0 5.4 10.0 7.9 8.0
2017-Sep-14 06:00N 59°06' W 135°18'12 0.7 020 / 51021.0 5.4 10.0 7.9 8.0
2017-Sep-13 12:00N 58°54' W 135°12'6 6.0 360 / 51023.310.8 10.0 9.011.0
2017-Sep-13 11:00N 58°48' W 135°12'1212.4 210 / 61023.410.8 9.5 8.111.0
2017-Sep-13 10:00N 58°36' W 135°06'7 6.8 090 / 51023.110.8 10.0 9.011.0
2017-Sep-13 09:00N 58°30' W 135°00'22 7.6 120 / 81022.910.8 10.0 9.011.0
2017-Sep-13 06:05N 58°09' W 135°14'3 9.2
2017-Sep-13 05:45N 58°10' W 135°19'2 9.6
2017-Sep-13 05:30N 58°11' W 135°23'510.2
2017-Sep-13 05:00N 58°14' W 135°32'510.3
2017-Sep-13 04:30N 58°16' W 135°40'5 9.5
2017-Sep-13 04:00N 58°18' W 135°48'026.0
2017-Sep-13 04:00N 58°18' W 135°48'510.3 210 / 101022.110.8 11.810.2 8.0
2017-Sep-13 03:30N 58°20' W 135°57'510.2
2017-Sep-13 03:00N 58°25' W 135°59'3176.9
2017-Sep-13 03:00N 58°24' W 135°54'815.8 240 / 41022.110.8 11.810.2 8.0
2017-Sep-13 02:31N 58°30' W 136°04'714.8
2017-Sep-13 02:00N 58°37' W 136°03'291823.8
2017-Sep-13 02:00N 58°12' W 136°30'3367.8 240 / 41020.110.8 11.810.213.0
2017-Sep-13 01:30N 58°43' W 136°10'815.3
2017-Sep-13 01:00N 58°47' W 136°23'352163.2
2017-Sep-13 01:00N 58°12' W 136°30'4080.6 010 / 101021.010.8 8.0 8.0 5.0
2017-Sep-13 00:30N 58°51' W 136°35'4077.5
2017-Sep-13 00:00N 58°12' W 136°30'34 7.1 240 / 41020.110.8 11.810.213.0
2017-Sep-12 19:08N 58°46' W 136°19'315.5
2017-Sep-12 18:58N 58°44' W 136°15'715.3
2017-Sep-12 18:30N 58°38' W 136°07'714.0
2017-Sep-12 18:00N 58°32' W 136°04'612.4
2017-Sep-12 17:30N 58°26' W 135°59'5 9.7
2017-Sep-12 17:01N 58°21' W 136°02'612.5
2017-Sep-12 16:30N 58°19' W 136°12'1612.1
2017-Sep-12 15:09N 58°10' W 136°38'5012.1
2017-Sep-12 11:00N 58°36' W 138°00'1413.9 110 / 21020.110.8 11.810.213.0
2017-Sep-12 10:00N 58°42' W 138°24'1212.5 290 / 61020.010.8 11.810.613.0
2017-Sep-12 09:00N 58°42' W 138°48'2812.3 290 / 151019.410.8 12.7 9.813.0
2017-Sep-12 06:44N 58°48' W 139°41'4512.0
2017-Sep-12 03:00N 58°54' W 141°06'   280 / 111014.410.8 13.0 9.113.0
Track history (hours):
 
Tides and Currents Weather Stations Pressure Air Temp Water Temp Dewpoint Dewpoint Depression Visibility Wind Speed Wind Dir Waves Ship Positions

Zaandam

Operator: Holland America Line

Last reported at 2017-Sep-22 03:00 UTC. Time now 2017-Sep-22 06:32 UTC.
Position N 57°48' W 134°48'.

Type: Passenger vessel. MMSI: 246442000.

Wind from 170 at 23 knots

Barometer 1014.7 mb
Air temperature 10.0 ° C
Visibility: greater than 2.2 NM
Dewpoint 9.0 ° C
Water temperature 21.0 ° C

Date/timePositionNaut miles runAvg speedWind from/ knotsBaromVisibWave heightAir tempDewpointWater temp
2017-Sep-22 03:00N 57°48' W 134°48'1919.1 170 / 231014.7 2.2 10.0 9.021.0
2017-Sep-22 02:00N 58°06' W 135°00'1217.9 120 / 171015.2 5.4 10.5 9.521.0
2017-Sep-22 01:18N 58°11' W 135°22'817.8
2017-Sep-22 00:52N 58°14' W 135°34'617.1
2017-Sep-22 00:30N 58°18' W 135°45'815.7
2017-Sep-22 00:01N 58°22' W 135°57'23313736.6
2017-Sep-22 00:00N 55°18' W 131°36'239493.4 180 / 41015.8 5.4 10.0 9.017.0
2017-Sep-21 23:30N 58°28' W 136°02'917.8
2017-Sep-21 23:00N 58°37' W 136°03'917.4
2017-Sep-21 22:31N 58°44' W 136°13'918.5
2017-Sep-21 22:01N 58°49' W 136°28'9 1.6
2017-Sep-21 16:19N 58°43' W 136°14'515.6
2017-Sep-21 16:00N 58°39' W 136°08'816.6
2017-Sep-21 15:30N 58°31' W 136°04'714.2
2017-Sep-21 15:01N 58°25' W 135°58'510.3
2017-Sep-21 14:30N 58°20' W 135°56'611.1
2017-Sep-21 14:00N 58°18' W 135°46'611.3
2017-Sep-21 13:30N 58°16' W 135°36'611.2
2017-Sep-21 13:00N 58°14' W 135°26'510.9
2017-Sep-21 12:30N 58°12' W 135°16'816.1
2017-Sep-21 12:00N 58°06' W 135°06'3612.0 220 / 111016.710.8 10.010.011.0
2017-Sep-21 09:00N 58°42' W 135°06'42 7.1 110 / 51015.010.8 10.0 7.911.0
2017-Sep-21 03:00N 59°24' W 135°18'77 3.4 130 / 11013.927.0 18.0 9.5 9.0
2017-Sep-20 04:00N 58°12' W 134°24'6 1.5 340 / 61008.727.0 11.5 9.517.0
2017-Sep-20 00:00N 58°18' W 134°24'18112.0 300 / 191005.927.0 12.0 7.9 9.0
2017-Sep-19 09:00N 55°18' W 133°54'1413.8 270 / 81004.010.8 12.0 7.513.0
2017-Sep-19 08:00N 55°06' W 133°42'7814.9 300 / 41004.410.8 11.9 8.013.0
2017-Sep-19 02:47N 54°25' W 131°48'516.1
2017-Sep-19 02:30N 54°24' W 131°41'816.2
2017-Sep-19 02:00N 54°23' W 131°27'5417.4
2017-Sep-19 02:00N 54°18' W 131°24'714.8 270 / 121003.727.0 11.5 6.212.0
2017-Sep-19 01:30N 54°21' W 131°13'815.6
2017-Sep-19 01:00N 54°19' W 131°00'4241.5
2017-Sep-19 01:00N 54°18' W 130°54'713.7 260 / 111004.527.0 11.5 7.412.0
2017-Sep-19 00:30N 54°13' W 131°02'918.4
2017-Sep-19 00:00N 54°04' W 131°00'4255.4
2017-Sep-19 00:00N 54°00' W 131°00'510.2 280 / 101004.027.0 11.0 7.913.0
2017-Sep-18 23:30N 53°55' W 130°57'917.1
2017-Sep-18 23:00N 53°48' W 130°49'8471.9
2017-Sep-18 23:00N 53°42' W 130°42'4 8.3 310 / 111003.827.0 11.0 6.812.0
2017-Sep-18 22:28N 53°43' W 130°35'1218.5
2017-Sep-18 21:48N 53°36' W 130°18'618.3
2017-Sep-18 21:27N 53°33' W 130°09'8418.7
2017-Sep-18 16:56N 52°23' W 128°51'818.6
2017-Sep-18 16:30N 52°15' W 128°49'1018.8
2017-Sep-18 16:00N 52°06' W 128°45'918.9
2017-Sep-18 15:30N 51°57' W 128°40'918.9
2017-Sep-18 15:00N 51°48' W 128°36'918.6
2017-Sep-18 14:30N 51°39' W 128°32'918.6
2017-Sep-18 14:00N 51°30' W 128°29'918.2
2017-Sep-18 13:30N 51°21' W 128°26'816.9
2017-Sep-18 13:00N 51°14' W 128°19'1018.5
2017-Sep-18 12:29N 51°08' W 128°06'919.0
2017-Sep-18 12:00N 51°02' W 127°55'1019.6
2017-Sep-18 11:30N 50°57' W 127°42'1020.6
2017-Sep-18 11:01N 50°51' W 127°29'4247.5
2017-Sep-18 11:00N 50°48' W 127°24'612.3 120 / 141002.510.8 9.8 8.211.0
2017-Sep-18 10:30N 50°47' W 127°15'1019.6
2017-Sep-18 10:00N 50°43' W 127°00'918.4
2017-Sep-18 09:30N 50°38' W 126°48'914.8
2017-Sep-18 08:54N 50°31' W 126°39'818.4
2017-Sep-18 08:29N 50°30' W 126°27'3517.7
2017-Sep-18 06:30N 50°22' W 125°34'714.4
2017-Sep-18 06:00N 50°18' W 125°25'917.8
2017-Sep-18 05:30N 50°09' W 125°21'713.4
2017-Sep-18 05:00N 50°04' W 125°15'815.1
2017-Sep-18 04:30N 49°58' W 125°09'1020.6
2017-Sep-18 04:01N 49°51' W 124°57'1020.3
2017-Sep-18 03:30N 49°43' W 124°47'1020.1
2017-Sep-18 03:01N 49°36' W 124°36'1020.1
2017-Sep-18 02:30N 49°28' W 124°26'1019.6
2017-Sep-18 02:01N 49°25' W 124°12'472834.6
2017-Sep-18 02:00N 49°18' W 123°00'3777.1 240 / 181001.710.8 14.0 8.014.0
2017-Sep-18 01:31N 49°23' W 123°57'1020.2
2017-Sep-18 01:01N 49°21' W 123°41'1020.6
2017-Sep-18 00:30N 49°19' W 123°26'1019.9
2017-Sep-18 00:01N 49°19' W 123°11'3 6.4
2017-Sep-17 23:30N 49°17' W 123°07'0 0.2
2017-Sep-17 23:00N 49°17' W 123°07'0 0.0
2017-Sep-17 22:30N 49°17' W 123°07'0 0.0
2017-Sep-17 22:00N 49°17' W 123°07'0 0.0
2017-Sep-17 21:30N 49°17' W 123°07'0 0.0
2017-Sep-17 21:00N 49°17' W 123°07'0 0.0
2017-Sep-17 20:30N 49°17' W 123°07'0 0.0
2017-Sep-17 20:00N 49°17' W 123°07'0 0.0
2017-Sep-17 19:30N 49°17' W 123°07'0 0.0
2017-Sep-17 19:00N 49°17' W 123°07'0 0.0
2017-Sep-17 18:30N 49°17' W 123°07'0 0.0
2017-Sep-17 18:00N 49°17' W 123°07'0 0.0
2017-Sep-17 17:30N 49°17' W 123°07'0 0.0
2017-Sep-17 17:00N 49°17' W 123°07'0 0.0
2017-Sep-17 16:30N 49°17' W 123°07'0 0.0
2017-Sep-17 16:00N 49°17' W 123°07'0 0.0
2017-Sep-17 15:30N 49°17' W 123°07'0 0.0
2017-Sep-17 15:00N 49°17' W 123°07'0 0.0
2017-Sep-17 14:30N 49°17' W 123°07'0 0.0
2017-Sep-17 14:00N 49°17' W 123°07'2 3.4
2017-Sep-17 13:30N 49°19' W 123°08'510.5
2017-Sep-17 13:00N 49°18' W 123°16'611.5
2017-Sep-17 12:30N 49°18' W 123°25'611.4
2017-Sep-17 12:00N 49°18' W 123°34'611.8
2017-Sep-17 11:30N 49°19' W 123°43'612.0
2017-Sep-17 11:00N 49°21' W 123°51'3224.6
2017-Sep-17 11:00N 49°18' W 123°48'918.5 150 / 141006.710.8 15.5 9.815.0
2017-Sep-17 10:30N 49°22' W 124°00'611.8
2017-Sep-17 10:00N 49°23' W 124°09'611.9
2017-Sep-17 09:30N 49°25' W 124°18'611.9
2017-Sep-17 09:00N 49°28' W 124°26'4271.8
2017-Sep-17 09:00N 49°24' W 124°24'1019.9 110 / 201007.010.8 16.011.415.0
2017-Sep-17 08:30N 49°32' W 124°33'612.0
2017-Sep-17 08:01N 49°36' W 124°39'2109.2
2017-Sep-17 08:00N 49°36' W 124°36'715.3 130 / 241007.310.8 16.210.616.0
2017-Sep-17 07:30N 49°41' W 124°45'611.9
2017-Sep-17 07:00N 49°45' W 124°51'612.2
2017-Sep-17 06:30N 49°49' W 124°58'611.9
2017-Sep-17 06:00N 49°54' W 125°04'611.8
2017-Sep-17 05:30N 49°58' W 125°10'611.8
2017-Sep-17 05:00N 50°03' W 125°15'612.7
2017-Sep-17 04:30N 50°08' W 125°21'5 9.9
2017-Sep-17 04:00N 50°13' W 125°23'4 8.8
2017-Sep-17 03:30N 50°17' W 125°24'4 7.2
2017-Sep-17 03:00N 50°18' W 125°30'353.6 120 / 131009.1 19.0 1.310.0
2017-Sep-17 02:56N 50°21' W 125°30'613.6
2017-Sep-17 02:30N 50°22' W 125°40'1214.4
2017-Sep-17 01:40N 50°25' W 125°58'715.8
2017-Sep-17 01:13N 50°28' W 126°08'416.5
2017-Sep-17 00:59N 50°29' W 126°14'816.5
2017-Sep-17 00:30N 50°30' W 126°26'816.0
2017-Sep-17 00:00N 50°31' W 126°39'2552.0
2017-Sep-17 00:00N 50°30' W 126°36'815.4 320 / 81010.0 5.4 12.012.010.0
2017-Sep-16 23:29N 50°36' W 126°44'815.3
2017-Sep-16 22:59N 50°41' W 126°53'715.4
2017-Sep-16 22:30N 50°44' W 127°04'715.0
2017-Sep-16 22:00N 50°46' W 127°15'917.0
2017-Sep-16 21:30N 50°50' W 127°27'917.6
2017-Sep-16 21:00N 50°54' W 127°39'917.7
2017-Sep-16 20:30N 51°00' W 127°50'917.7
2017-Sep-16 20:00N 51°05' W 128°02'918.2
2017-Sep-16 19:30N 51°10' W 128°14'918.0
2017-Sep-16 19:00N 51°15' W 128°26'917.7
2017-Sep-16 18:30N 51°23' W 128°30'918.5
2017-Sep-16 18:00N 51°32' W 128°32'918.3
2017-Sep-16 17:30N 51°41' W 128°35'918.5
2017-Sep-16 17:00N 51°50' W 128°41'918.8
2017-Sep-16 16:30N 51°55' W 128°53'918.5
2017-Sep-16 16:00N 51°60' W 129°06'918.2
2017-Sep-16 15:30N 52°05' W 129°18'918.3
2017-Sep-16 15:00N 52°10' W 129°31'918.4
2017-Sep-16 14:30N 52°17' W 129°41'918.6
2017-Sep-16 14:00N 52°24' W 129°50'1018.5
2017-Sep-16 13:29N 52°32' W 129°58'918.3
2017-Sep-16 13:00N 52°40' W 130°05'918.4
2017-Sep-16 12:30N 52°48' W 130°13'1418.9
2017-Sep-16 11:46N 53°00' W 130°25'1619.2
2017-Sep-16 10:56N 53°14' W 130°38'819.5
2017-Sep-16 10:30N 53°21' W 130°44'1019.5
2017-Sep-16 10:01N 53°30' W 130°51'1019.5
2017-Sep-16 09:31N 53°40' W 130°53'1019.3
2017-Sep-16 09:00N 53°49' W 130°55'1019.2
2017-Sep-16 08:30N 53°59' W 130°58'918.5
2017-Sep-16 08:00N 54°08' W 130°60'918.1
2017-Sep-16 07:30N 54°17' W 130°60'612.1
2017-Sep-16 07:00N 54°23' W 131°02'918.0
2017-Sep-16 06:30N 54°30' W 131°12'918.7
2017-Sep-16 06:00N 54°36' W 131°23'1018.6
2017-Sep-16 05:28N 54°44' W 131°34'818.1
2017-Sep-16 05:00N 54°52' W 131°39'3217.6
2017-Sep-16 05:00N 54°54' W 131°36'1818.0 310 / 111015.9 11.0 9.013.0
2017-Sep-16 04:00N 55°12' W 131°36'93 5.8 220 / 41016.310.8 12.0 7.913.0
2017-Sep-15 12:00N 56°12' W 133°42'2412.1 100 / 71019.610.8 10.5 7.4 9.0
2017-Sep-15 10:00N 56°06' W 134°24'1818.0 190 / 21020.110.8 11.5 5.711.0
2017-Sep-15 09:00N 56°24' W 134°24'9118.2 300 / 11020.110.8 11.0 6.8 9.0
2017-Sep-15 04:00N 57°54' W 134°00'1919.1 140 / 71020.010.8 10.0 5.6 8.0
2017-Sep-15 03:00N 58°12' W 134°12'17 1.1 140 / 71020.010.8 10.0 7.9 9.0
2017-Sep-14 12:00N 58°18' W 134°42'9 8.7 110 / 91021.610.8 10.0 7.511.0
2017-Sep-14 11:00N 58°24' W 134°54'19 9.5 180 / 71021.410.8 10.0 7.911.0
2017-Sep-14 09:00N 58°42' W 135°06'18 9.1 120 / 91022.010.8 10.2 8.811.0
2017-Sep-14 07:00N 59°00' W 135°12'7 6.7 020 / 51021.0 5.4 10.0 7.9 8.0
2017-Sep-14 06:00N 59°06' W 135°18'12 0.7 020 / 51021.0 5.4 10.0 7.9 8.0
2017-Sep-13 12:00N 58°54' W 135°12'6 6.0 360 / 51023.310.8 10.0 9.011.0
2017-Sep-13 11:00N 58°48' W 135°12'1212.4 210 / 61023.410.8 9.5 8.111.0
2017-Sep-13 10:00N 58°36' W 135°06'7 6.8 090 / 51023.110.8 10.0 9.011.0
2017-Sep-13 09:00N 58°30' W 135°00'22 7.6 120 / 81022.910.8 10.0 9.011.0
2017-Sep-13 06:05N 58°09' W 135°14'3 9.2
2017-Sep-13 05:45N 58°10' W 135°19'2 9.6
2017-Sep-13 05:30N 58°11' W 135°23'510.2
2017-Sep-13 05:00N 58°14' W 135°32'510.3
2017-Sep-13 04:30N 58°16' W 135°40'5 9.5
2017-Sep-13 04:00N 58°18' W 135°48'026.0
2017-Sep-13 04:00N 58°18' W 135°48'510.3 210 / 101022.110.8 11.810.2 8.0
2017-Sep-13 03:30N 58°20' W 135°57'510.2
2017-Sep-13 03:00N 58°25' W 135°59'3176.9
2017-Sep-13 03:00N 58°24' W 135°54'815.8 240 / 41022.110.8 11.810.2 8.0
2017-Sep-13 02:31N 58°30' W 136°04'714.8
2017-Sep-13 02:00N 58°37' W 136°03'291823.8
2017-Sep-13 02:00N 58°12' W 136°30'3367.8 240 / 41020.110.8 11.810.213.0
2017-Sep-13 01:30N 58°43' W 136°10'815.3
2017-Sep-13 01:00N 58°47' W 136°23'352163.2
2017-Sep-13 01:00N 58°12' W 136°30'4080.6 010 / 101021.010.8 8.0 8.0 5.0
2017-Sep-13 00:30N 58°51' W 136°35'4077.5
2017-Sep-13 00:00N 58°12' W 136°30'34 7.1 240 / 41020.110.8 11.810.213.0
2017-Sep-12 19:08N 58°46' W 136°19'315.5
2017-Sep-12 18:58N 58°44' W 136°15'715.3
2017-Sep-12 18:30N 58°38' W 136°07'714.0
2017-Sep-12 18:00N 58°32' W 136°04'612.4
2017-Sep-12 17:30N 58°26' W 135°59'5 9.7
2017-Sep-12 17:01N 58°21' W 136°02'612.5
2017-Sep-12 16:30N 58°19' W 136°12'1612.1
2017-Sep-12 15:09N 58°10' W 136°38'5012.1
2017-Sep-12 11:00N 58°36' W 138°00'1413.9 110 / 21020.110.8 11.810.213.0
2017-Sep-12 10:00N 58°42' W 138°24'1212.5 290 / 61020.010.8 11.810.613.0
2017-Sep-12 09:00N 58°42' W 138°48'2812.3 290 / 151019.410.8 12.7 9.813.0
2017-Sep-12 06:44N 58°48' W 139°41'4512.0
2017-Sep-12 03:00N 58°54' W 141°06'   280 / 111014.410.8 13.0 9.113.0

Dump ship's entire track history